sensor_id;sensor_type;location;lat;lon;timestamp;P1;durP1;ratioP1;P2;durP2;ratioP2
47153;SDS011;32907;41.412;2.164;2023-11-21T00:01:04;12.93;;;7.90;;
47153;SDS011;32907;41.412;2.164;2023-11-21T00:03:33;11.02;;;7.03;;
47153;SDS011;32907;41.412;2.164;2023-11-21T00:06:01;8.60;;;6.30;;
47153;SDS011;32907;41.412;2.164;2023-11-21T00:08:29;7.38;;;6.32;;
47153;SDS011;32907;41.412;2.164;2023-11-21T00:10:58;9.57;;;6.07;;
47153;SDS011;32907;41.412;2.164;2023-11-21T00:13:28;7.93;;;6.10;;
47153;SDS011;32907;41.412;2.164;2023-11-21T00:15:55;8.10;;;5.85;;
47153;SDS011;32907;41.412;2.164;2023-11-21T00:18:23;7.50;;;6.03;;
47153;SDS011;32907;41.412;2.164;2023-11-21T00:20:52;6.10;;;5.05;;
47153;SDS011;32907;41.412;2.164;2023-11-21T00:23:21;8.77;;;5.43;;
47153;SDS011;32907;41.412;2.164;2023-11-21T00:25:49;6.38;;;5.20;;
47153;SDS011;32907;41.412;2.164;2023-11-21T00:28:17;7.68;;;4.95;;
47153;SDS011;32907;41.412;2.164;2023-11-21T00:30:45;7.75;;;5.07;;
47153;SDS011;32907;41.412;2.164;2023-11-21T00:33:14;7.00;;;5.00;;
47153;SDS011;32907;41.412;2.164;2023-11-21T00:35:42;6.93;;;5.18;;
47153;SDS011;32907;41.412;2.164;2023-11-21T00:38:10;6.05;;;4.43;;
47153;SDS011;32907;41.412;2.164;2023-11-21T00:40:38;6.30;;;4.85;;
47153;SDS011;32907;41.412;2.164;2023-11-21T00:43:06;6.57;;;4.72;;
47153;SDS011;32907;41.412;2.164;2023-11-21T00:45:34;5.97;;;4.78;;
47153;SDS011;32907;41.412;2.164;2023-11-21T00:48:03;6.22;;;4.60;;
47153;SDS011;32907;41.412;2.164;2023-11-21T00:50:32;4.80;;;4.05;;
47153;SDS011;32907;41.412;2.164;2023-11-21T00:53:00;7.65;;;4.20;;
47153;SDS011;32907;41.412;2.164;2023-11-21T00:55:29;6.07;;;4.22;;
47153;SDS011;32907;41.412;2.164;2023-11-21T00:57:58;6.43;;;4.32;;
47153;SDS011;32907;41.412;2.164;2023-11-21T01:00:27;4.88;;;4.15;;
47153;SDS011;32907;41.412;2.164;2023-11-21T01:02:56;6.32;;;4.05;;
47153;SDS011;32907;41.412;2.164;2023-11-21T01:05:24;6.10;;;3.92;;
47153;SDS011;32907;41.412;2.164;2023-11-21T01:07:52;5.28;;;3.88;;
47153;SDS011;32907;41.412;2.164;2023-11-21T01:10:20;5.45;;;3.60;;
47153;SDS011;32907;41.412;2.164;2023-11-21T01:12:49;6.35;;;3.85;;
47153;SDS011;32907;41.412;2.164;2023-11-21T01:15:17;5.97;;;3.80;;
47153;SDS011;32907;41.412;2.164;2023-11-21T01:17:45;5.30;;;3.75;;
47153;SDS011;32907;41.412;2.164;2023-11-21T01:20:13;6.57;;;4.25;;
47153;SDS011;32907;41.412;2.164;2023-11-21T01:22:41;4.85;;;3.58;;
47153;SDS011;32907;41.412;2.164;2023-11-21T01:25:09;5.50;;;3.78;;
47153;SDS011;32907;41.412;2.164;2023-11-21T01:27:38;5.07;;;3.90;;
47153;SDS011;32907;41.412;2.164;2023-11-21T01:30:06;5.57;;;3.88;;
47153;SDS011;32907;41.412;2.164;2023-11-21T01:32:36;5.38;;;4.50;;
47153;SDS011;32907;41.412;2.164;2023-11-21T01:35:04;7.13;;;4.53;;
47153;SDS011;32907;41.412;2.164;2023-11-21T01:37:38;5.22;;;4.20;;
47153;SDS011;32907;41.412;2.164;2023-11-21T01:40:06;5.15;;;4.30;;
47153;SDS011;32907;41.412;2.164;2023-11-21T01:42:38;5.32;;;4.40;;
47153;SDS011;32907;41.412;2.164;2023-11-21T01:45:07;5.93;;;4.40;;
47153;SDS011;32907;41.412;2.164;2023-11-21T01:47:37;7.00;;;5.32;;
47153;SDS011;32907;41.412;2.164;2023-11-21T01:50:06;6.25;;;5.32;;
47153;SDS011;32907;41.412;2.164;2023-11-21T01:52:40;6.22;;;4.85;;
47153;SDS011;32907;41.412;2.164;2023-11-21T01:55:09;7.30;;;5.18;;
47153;SDS011;32907;41.412;2.164;2023-11-21T01:57:43;6.75;;;4.45;;
47153;SDS011;32907;41.412;2.164;2023-11-21T02:00:11;7.15;;;5.45;;
47153;SDS011;32907;41.412;2.164;2023-11-21T02:02:46;6.90;;;5.43;;
47153;SDS011;32907;41.412;2.164;2023-11-21T02:05:16;7.75;;;6.88;;
47153;SDS011;32907;41.412;2.164;2023-11-21T02:07:46;7.93;;;7.05;;
47153;SDS011;32907;41.412;2.164;2023-11-21T02:10:16;11.18;;;8.35;;
47153;SDS011;32907;41.412;2.164;2023-11-21T02:12:45;14.40;;;9.27;;
47153;SDS011;32907;41.412;2.164;2023-11-21T02:15:14;13.70;;;9.15;;
47153;SDS011;32907;41.412;2.164;2023-11-21T02:17:49;11.82;;;10.18;;
47153;SDS011;32907;41.412;2.164;2023-11-21T02:20:21;12.68;;;10.38;;
47153;SDS011;32907;41.412;2.164;2023-11-21T02:22:50;11.48;;;10.10;;
47153;SDS011;32907;41.412;2.164;2023-11-21T02:25:35;12.60;;;10.43;;
47153;SDS011;32907;41.412;2.164;2023-11-21T02:28:05;11.85;;;10.05;;
47153;SDS011;32907;41.412;2.164;2023-11-21T02:30:35;13.13;;;11.57;;
47153;SDS011;32907;41.412;2.164;2023-11-21T02:33:05;12.77;;;11.07;;
47153;SDS011;32907;41.412;2.164;2023-11-21T02:35:34;15.95;;;12.38;;
47153;SDS011;32907;41.412;2.164;2023-11-21T02:38:02;12.90;;;10.98;;
47153;SDS011;32907;41.412;2.164;2023-11-21T02:40:30;13.13;;;11.55;;
47153;SDS011;32907;41.412;2.164;2023-11-21T02:42:58;13.43;;;11.65;;
47153;SDS011;32907;41.412;2.164;2023-11-21T02:45:27;15.07;;;12.10;;
47153;SDS011;32907;41.412;2.164;2023-11-21T02:47:56;14.70;;;13.20;;
47153;SDS011;32907;41.412;2.164;2023-11-21T02:50:26;16.08;;;13.38;;
47153;SDS011;32907;41.412;2.164;2023-11-21T02:52:55;17.55;;;14.32;;
47153;SDS011;32907;41.412;2.164;2023-11-21T02:55:26;16.35;;;14.55;;
47153;SDS011;32907;41.412;2.164;2023-11-21T02:57:54;17.63;;;14.70;;
47153;SDS011;32907;41.412;2.164;2023-11-21T03:00:24;19.83;;;16.83;;
47153;SDS011;32907;41.412;2.164;2023-11-21T03:02:54;20.45;;;18.00;;
47153;SDS011;32907;41.412;2.164;2023-11-21T03:05:23;23.17;;;18.98;;
47153;SDS011;32907;41.412;2.164;2023-11-21T03:07:51;21.10;;;18.38;;
47153;SDS011;32907;41.412;2.164;2023-11-21T03:10:19;21.23;;;18.20;;
47153;SDS011;32907;41.412;2.164;2023-11-21T03:12:47;20.92;;;18.27;;
47153;SDS011;32907;41.412;2.164;2023-11-21T03:15:15;21.58;;;19.27;;
47153;SDS011;32907;41.412;2.164;2023-11-21T03:17:44;21.13;;;17.90;;
47153;SDS011;32907;41.412;2.164;2023-11-21T03:20:13;22.88;;;19.08;;
47153;SDS011;32907;41.412;2.164;2023-11-21T03:22:41;23.45;;;18.75;;
47153;SDS011;32907;41.412;2.164;2023-11-21T03:25:09;21.83;;;18.63;;
47153;SDS011;32907;41.412;2.164;2023-11-21T03:27:39;23.38;;;19.20;;
47153;SDS011;32907;41.412;2.164;2023-11-21T03:30:07;21.98;;;18.10;;
47153;SDS011;32907;41.412;2.164;2023-11-21T03:32:37;23.05;;;19.52;;
47153;SDS011;32907;41.412;2.164;2023-11-21T03:35:05;20.30;;;18.00;;
47153;SDS011;32907;41.412;2.164;2023-11-21T03:37:34;22.27;;;18.83;;
47153;SDS011;32907;41.412;2.164;2023-11-21T03:40:03;22.20;;;18.35;;
47153;SDS011;32907;41.412;2.164;2023-11-21T03:42:32;18.10;;;16.10;;
47153;SDS011;32907;41.412;2.164;2023-11-21T03:45:00;16.50;;;13.07;;
47153;SDS011;32907;41.412;2.164;2023-11-21T03:47:28;13.65;;;11.38;;
47153;SDS011;32907;41.412;2.164;2023-11-21T03:49:57;10.85;;;9.60;;
47153;SDS011;32907;41.412;2.164;2023-11-21T03:52:26;11.35;;;7.80;;
47153;SDS011;32907;41.412;2.164;2023-11-21T03:54:54;9.68;;;6.47;;
47153;SDS011;32907;41.412;2.164;2023-11-21T03:57:25;6.47;;;5.47;;
47153;SDS011;32907;41.412;2.164;2023-11-21T03:59:55;5.85;;;4.63;;
47153;SDS011;32907;41.412;2.164;2023-11-21T04:02:23;5.45;;;4.10;;
47153;SDS011;32907;41.412;2.164;2023-11-21T04:04:54;4.78;;;3.45;;
47153;SDS011;32907;41.412;2.164;2023-11-21T04:07:22;4.45;;;3.42;;
47153;SDS011;32907;41.412;2.164;2023-11-21T04:09:50;3.80;;;2.72;;
47153;SDS011;32907;41.412;2.164;2023-11-21T04:12:19;3.10;;;2.05;;
47153;SDS011;32907;41.412;2.164;2023-11-21T04:14:47;5.88;;;2.85;;
47153;SDS011;32907;41.412;2.164;2023-11-21T04:17:17;2.33;;;1.40;;
47153;SDS011;32907;41.412;2.164;2023-11-21T04:19:46;2.50;;;1.40;;
47153;SDS011;32907;41.412;2.164;2023-11-21T04:22:14;2.08;;;1.20;;
47153;SDS011;32907;41.412;2.164;2023-11-21T04:24:42;2.35;;;1.10;;
47153;SDS011;32907;41.412;2.164;2023-11-21T04:27:10;1.27;;;0.80;;
47153;SDS011;32907;41.412;2.164;2023-11-21T04:29:38;1.63;;;0.98;;
47153;SDS011;32907;41.412;2.164;2023-11-21T04:32:06;2.67;;;0.85;;
47153;SDS011;32907;41.412;2.164;2023-11-21T04:34:35;1.40;;;0.73;;
47153;SDS011;32907;41.412;2.164;2023-11-21T04:37:03;1.55;;;0.90;;
47153;SDS011;32907;41.412;2.164;2023-11-21T04:39:33;1.10;;;0.73;;
47153;SDS011;32907;41.412;2.164;2023-11-21T04:42:01;1.65;;;0.70;;
47153;SDS011;32907;41.412;2.164;2023-11-21T04:44:29;2.75;;;0.98;;
47153;SDS011;32907;41.412;2.164;2023-11-21T04:46:57;3.35;;;1.00;;
47153;SDS011;32907;41.412;2.164;2023-11-21T04:49:26;2.35;;;1.15;;
47153;SDS011;32907;41.412;2.164;2023-11-21T04:51:53;2.22;;;1.40;;
47153;SDS011;32907;41.412;2.164;2023-11-21T04:54:22;1.50;;;1.00;;
47153;SDS011;32907;41.412;2.164;2023-11-21T04:56:54;4.30;;;1.50;;
47153;SDS011;32907;41.412;2.164;2023-11-21T04:59:21;3.03;;;1.50;;
47153;SDS011;32907;41.412;2.164;2023-11-21T05:01:53;2.40;;;1.40;;
47153;SDS011;32907;41.412;2.164;2023-11-21T05:04:21;2.50;;;1.13;;
47153;SDS011;32907;41.412;2.164;2023-11-21T05:06:50;1.48;;;1.00;;
47153;SDS011;32907;41.412;2.164;2023-11-21T05:09:18;1.85;;;1.20;;
47153;SDS011;32907;41.412;2.164;2023-11-21T05:11:45;2.05;;;1.30;;
47153;SDS011;32907;41.412;2.164;2023-11-21T05:14:13;3.35;;;1.40;;
47153;SDS011;32907;41.412;2.164;2023-11-21T05:16:41;1.55;;;1.30;;
47153;SDS011;32907;41.412;2.164;2023-11-21T05:19:09;2.25;;;1.55;;
47153;SDS011;32907;41.412;2.164;2023-11-21T05:21:41;2.25;;;1.33;;
47153;SDS011;32907;41.412;2.164;2023-11-21T05:24:09;5.28;;;1.38;;
47153;SDS011;32907;41.412;2.164;2023-11-21T05:26:37;3.50;;;1.55;;
47153;SDS011;32907;41.412;2.164;2023-11-21T05:29:06;4.47;;;2.10;;
47153;SDS011;32907;41.412;2.164;2023-11-21T05:31:34;3.15;;;1.90;;
47153;SDS011;32907;41.412;2.164;2023-11-21T05:34:03;4.22;;;2.38;;
47153;SDS011;32907;41.412;2.164;2023-11-21T05:36:32;3.70;;;2.63;;
47153;SDS011;32907;41.412;2.164;2023-11-21T05:39:01;3.78;;;2.65;;
47153;SDS011;32907;41.412;2.164;2023-11-21T05:41:30;5.15;;;2.72;;
47153;SDS011;32907;41.412;2.164;2023-11-21T05:43:58;4.63;;;2.50;;
47153;SDS011;32907;41.412;2.164;2023-11-21T05:46:26;3.95;;;2.42;;
47153;SDS011;32907;41.412;2.164;2023-11-21T05:48:55;5.68;;;2.63;;
47153;SDS011;32907;41.412;2.164;2023-11-21T05:51:24;4.45;;;2.38;;
47153;SDS011;32907;41.412;2.164;2023-11-21T05:53:52;6.13;;;2.10;;
47153;SDS011;32907;41.412;2.164;2023-11-21T05:56:20;5.78;;;2.55;;
47153;SDS011;32907;41.412;2.164;2023-11-21T05:58:48;5.13;;;2.60;;
47153;SDS011;32907;41.412;2.164;2023-11-21T06:01:16;5.68;;;2.35;;
47153;SDS011;32907;41.412;2.164;2023-11-21T06:03:44;5.30;;;2.33;;
47153;SDS011;32907;41.412;2.164;2023-11-21T06:06:13;6.38;;;2.20;;
47153;SDS011;32907;41.412;2.164;2023-11-21T06:08:41;4.80;;;2.00;;
47153;SDS011;32907;41.412;2.164;2023-11-21T06:11:10;4.65;;;1.75;;
47153;SDS011;32907;41.412;2.164;2023-11-21T06:13:39;5.47;;;2.97;;
47153;SDS011;32907;41.412;2.164;2023-11-21T06:16:07;6.63;;;2.90;;
47153;SDS011;32907;41.412;2.164;2023-11-21T06:18:36;7.53;;;3.70;;
47153;SDS011;32907;41.412;2.164;2023-11-21T06:21:04;7.43;;;3.42;;
47153;SDS011;32907;41.412;2.164;2023-11-21T06:23:32;7.30;;;3.65;;
47153;SDS011;32907;41.412;2.164;2023-11-21T06:26:00;7.15;;;2.95;;
47153;SDS011;32907;41.412;2.164;2023-11-21T06:28:28;5.43;;;3.00;;
47153;SDS011;32907;41.412;2.164;2023-11-21T06:30:56;4.47;;;2.72;;
47153;SDS011;32907;41.412;2.164;2023-11-21T06:33:32;5.00;;;2.50;;
47153;SDS011;32907;41.412;2.164;2023-11-21T06:36:01;8.15;;;2.42;;
47153;SDS011;32907;41.412;2.164;2023-11-21T06:38:33;16.08;;;4.85;;
47153;SDS011;32907;41.412;2.164;2023-11-21T06:41:02;10.45;;;4.38;;
47153;SDS011;32907;41.412;2.164;2023-11-21T06:43:31;12.27;;;4.40;;
47153;SDS011;32907;41.412;2.164;2023-11-21T06:46:00;14.88;;;4.07;;
47153;SDS011;32907;41.412;2.164;2023-11-21T06:48:28;10.20;;;3.25;;
47153;SDS011;32907;41.412;2.164;2023-11-21T06:50:57;7.78;;;3.08;;
47153;SDS011;32907;41.412;2.164;2023-11-21T06:53:25;8.98;;;3.38;;
47153;SDS011;32907;41.412;2.164;2023-11-21T06:55:53;8.93;;;2.60;;
47153;SDS011;32907;41.412;2.164;2023-11-21T06:58:21;5.60;;;1.52;;
47153;SDS011;32907;41.412;2.164;2023-11-21T07:00:50;7.35;;;1.90;;
47153;SDS011;32907;41.412;2.164;2023-11-21T07:03:22;7.05;;;1.73;;
47153;SDS011;32907;41.412;2.164;2023-11-21T07:05:51;4.55;;;1.90;;
47153;SDS011;32907;41.412;2.164;2023-11-21T07:08:19;5.82;;;2.05;;
47153;SDS011;32907;41.412;2.164;2023-11-21T07:10:47;4.60;;;1.85;;
47153;SDS011;32907;41.412;2.164;2023-11-21T07:13:16;3.97;;;1.40;;
47153;SDS011;32907;41.412;2.164;2023-11-21T07:15:44;4.72;;;1.45;;
47153;SDS011;32907;41.412;2.164;2023-11-21T07:18:13;3.97;;;1.80;;
47153;SDS011;32907;41.412;2.164;2023-11-21T07:20:41;4.60;;;2.38;;
47153;SDS011;32907;41.412;2.164;2023-11-21T07:23:09;4.97;;;2.30;;
47153;SDS011;32907;41.412;2.164;2023-11-21T07:25:37;7.28;;;2.60;;
47153;SDS011;32907;41.412;2.164;2023-11-21T07:28:06;3.70;;;1.90;;
47153;SDS011;32907;41.412;2.164;2023-11-21T07:30:34;5.05;;;1.92;;
47153;SDS011;32907;41.412;2.164;2023-11-21T07:33:02;5.35;;;1.88;;
47153;SDS011;32907;41.412;2.164;2023-11-21T07:35:30;3.17;;;1.73;;
47153;SDS011;32907;41.412;2.164;2023-11-21T07:37:59;5.30;;;2.42;;
47153;SDS011;32907;41.412;2.164;2023-11-21T07:40:27;3.95;;;2.10;;
47153;SDS011;32907;41.412;2.164;2023-11-21T07:42:58;4.53;;;2.70;;
47153;SDS011;32907;41.412;2.164;2023-11-21T07:45:28;4.20;;;2.25;;
47153;SDS011;32907;41.412;2.164;2023-11-21T07:47:56;6.38;;;2.67;;
47153;SDS011;32907;41.412;2.164;2023-11-21T07:50:24;5.45;;;2.95;;
47153;SDS011;32907;41.412;2.164;2023-11-21T07:52:54;4.65;;;2.42;;
47153;SDS011;32907;41.412;2.164;2023-11-21T07:55:22;6.30;;;2.42;;
47153;SDS011;32907;41.412;2.164;2023-11-21T07:57:50;3.88;;;1.83;;
47153;SDS011;32907;41.412;2.164;2023-11-21T08:00:18;3.78;;;1.60;;
47153;SDS011;32907;41.412;2.164;2023-11-21T08:02:48;4.35;;;1.73;;
47153;SDS011;32907;41.412;2.164;2023-11-21T08:05:16;3.47;;;1.58;;
47153;SDS011;32907;41.412;2.164;2023-11-21T08:07:54;4.63;;;2.03;;
47153;SDS011;32907;41.412;2.164;2023-11-21T08:10:23;8.68;;;2.30;;
47153;SDS011;32907;41.412;2.164;2023-11-21T08:12:51;4.40;;;1.80;;
47153;SDS011;32907;41.412;2.164;2023-11-21T08:15:19;3.47;;;1.35;;
47153;SDS011;32907;41.412;2.164;2023-11-21T08:17:47;7.32;;;1.48;;
47153;SDS011;32907;41.412;2.164;2023-11-21T08:20:16;10.00;;;2.28;;
47153;SDS011;32907;41.412;2.164;2023-11-21T08:22:45;11.18;;;3.00;;
47153;SDS011;32907;41.412;2.164;2023-11-21T08:25:15;17.08;;;2.70;;
47153;SDS011;32907;41.412;2.164;2023-11-21T08:27:44;4.38;;;1.55;;
47153;SDS011;32907;41.412;2.164;2023-11-21T08:30:13;6.20;;;1.60;;
47153;SDS011;32907;41.412;2.164;2023-11-21T08:32:41;4.28;;;1.30;;
47153;SDS011;32907;41.412;2.164;2023-11-21T08:35:10;5.85;;;2.10;;
47153;SDS011;32907;41.412;2.164;2023-11-21T08:37:39;5.00;;;1.63;;
47153;SDS011;32907;41.412;2.164;2023-11-21T08:40:07;3.75;;;1.25;;
47153;SDS011;32907;41.412;2.164;2023-11-21T08:42:36;6.95;;;1.70;;
47153;SDS011;32907;41.412;2.164;2023-11-21T08:45:05;4.05;;;1.63;;
47153;SDS011;32907;41.412;2.164;2023-11-21T08:47:36;3.22;;;1.52;;
47153;SDS011;32907;41.412;2.164;2023-11-21T08:50:05;5.60;;;1.60;;
47153;SDS011;32907;41.412;2.164;2023-11-21T08:52:36;6.05;;;2.20;;
47153;SDS011;32907;41.412;2.164;2023-11-21T08:55:04;6.45;;;2.08;;
47153;SDS011;32907;41.412;2.164;2023-11-21T08:57:36;8.48;;;3.00;;
47153;SDS011;32907;41.412;2.164;2023-11-21T09:00:05;6.30;;;2.80;;
47153;SDS011;32907;41.412;2.164;2023-11-21T09:02:39;8.00;;;2.50;;
47153;SDS011;32907;41.412;2.164;2023-11-21T09:05:11;6.57;;;2.28;;
47153;SDS011;32907;41.412;2.164;2023-11-21T09:07:41;7.15;;;3.20;;
47153;SDS011;32907;41.412;2.164;2023-11-21T09:10:10;7.07;;;3.45;;
47153;SDS011;32907;41.412;2.164;2023-11-21T09:12:38;6.72;;;3.00;;
47153;SDS011;32907;41.412;2.164;2023-11-21T09:15:06;5.55;;;2.75;;
47153;SDS011;32907;41.412;2.164;2023-11-21T09:17:37;6.80;;;2.83;;
47153;SDS011;32907;41.412;2.164;2023-11-21T09:20:06;5.97;;;2.22;;
47153;SDS011;32907;41.412;2.164;2023-11-21T09:22:38;4.90;;;2.22;;
47153;SDS011;32907;41.412;2.164;2023-11-21T09:25:07;5.55;;;1.90;;
47153;SDS011;32907;41.412;2.164;2023-11-21T09:27:36;6.75;;;2.30;;
47153;SDS011;32907;41.412;2.164;2023-11-21T09:30:04;6.50;;;2.85;;
47153;SDS011;32907;41.412;2.164;2023-11-21T09:32:37;6.15;;;2.28;;
47153;SDS011;32907;41.412;2.164;2023-11-21T09:35:06;5.40;;;2.03;;
47153;SDS011;32907;41.412;2.164;2023-11-21T09:37:37;5.22;;;1.95;;
47153;SDS011;32907;41.412;2.164;2023-11-21T09:40:06;4.90;;;1.85;;
47153;SDS011;32907;41.412;2.164;2023-11-21T09:43:04;6.35;;;1.80;;
47153;SDS011;32907;41.412;2.164;2023-11-21T09:45:35;4.00;;;1.85;;
47153;SDS011;32907;41.412;2.164;2023-11-21T09:48:04;5.95;;;2.42;;
47153;SDS011;32907;41.412;2.164;2023-11-21T09:50:34;3.47;;;1.65;;
47153;SDS011;32907;41.412;2.164;2023-11-21T09:53:16;6.32;;;2.88;;
47153;SDS011;32907;41.412;2.164;2023-11-21T09:55:50;6.50;;;3.55;;
47153;SDS011;32907;41.412;2.164;2023-11-21T09:58:20;5.90;;;2.90;;
47153;SDS011;32907;41.412;2.164;2023-11-21T10:00:50;6.80;;;2.80;;
47153;SDS011;32907;41.412;2.164;2023-11-21T10:03:21;4.28;;;2.30;;
47153;SDS011;32907;41.412;2.164;2023-11-21T10:05:50;4.38;;;1.98;;
47153;SDS011;32907;41.412;2.164;2023-11-21T10:08:18;3.58;;;1.90;;
47153;SDS011;32907;41.412;2.164;2023-11-21T10:10:51;4.25;;;1.67;;
47153;SDS011;32907;41.412;2.164;2023-11-21T10:13:21;3.65;;;1.67;;
47153;SDS011;32907;41.412;2.164;2023-11-21T10:15:49;4.60;;;1.77;;
47153;SDS011;32907;41.412;2.164;2023-11-21T10:18:20;4.05;;;1.75;;
47153;SDS011;32907;41.412;2.164;2023-11-21T10:20:52;5.32;;;1.88;;
47153;SDS011;32907;41.412;2.164;2023-11-21T10:23:22;3.03;;;1.55;;
47153;SDS011;32907;41.412;2.164;2023-11-21T10:25:51;3.25;;;1.20;;
47153;SDS011;32907;41.412;2.164;2023-11-21T10:28:22;2.38;;;1.38;;
47153;SDS011;32907;41.412;2.164;2023-11-21T10:30:50;4.68;;;1.55;;
47153;SDS011;32907;41.412;2.164;2023-11-21T10:33:18;2.80;;;1.48;;
47153;SDS011;32907;41.412;2.164;2023-11-21T10:35:56;3.25;;;1.33;;
47153;SDS011;32907;41.412;2.164;2023-11-21T10:38:24;3.28;;;1.20;;
47153;SDS011;32907;41.412;2.164;2023-11-21T10:40:54;2.70;;;1.20;;
47153;SDS011;32907;41.412;2.164;2023-11-21T10:43:26;5.63;;;1.23;;
47153;SDS011;32907;41.412;2.164;2023-11-21T10:45:57;3.13;;;1.42;;
47153;SDS011;32907;41.412;2.164;2023-11-21T10:48:27;3.25;;;1.42;;
47153;SDS011;32907;41.412;2.164;2023-11-21T10:50:55;2.10;;;1.00;;
47153;SDS011;32907;41.412;2.164;2023-11-21T10:53:24;1.67;;;1.00;;
47153;SDS011;32907;41.412;2.164;2023-11-21T10:56:05;2.08;;;0.85;;
47153;SDS011;32907;41.412;2.164;2023-11-21T10:58:36;3.50;;;1.13;;
47153;SDS011;32907;41.412;2.164;2023-11-21T11:01:06;4.03;;;1.05;;
47153;SDS011;32907;41.412;2.164;2023-11-21T11:03:35;4.00;;;0.80;;
47153;SDS011;32907;41.412;2.164;2023-11-21T11:06:04;3.15;;;1.10;;
47153;SDS011;32907;41.412;2.164;2023-11-21T11:08:35;1.70;;;0.82;;
47153;SDS011;32907;41.412;2.164;2023-11-21T11:11:07;2.08;;;0.80;;
47153;SDS011;32907;41.412;2.164;2023-11-21T11:13:37;3.03;;;1.08;;
47153;SDS011;32907;41.412;2.164;2023-11-21T11:16:06;2.05;;;0.80;;
47153;SDS011;32907;41.412;2.164;2023-11-21T11:18:38;6.20;;;0.95;;
47153;SDS011;32907;41.412;2.164;2023-11-21T11:21:20;2.35;;;0.85;;
47153;SDS011;32907;41.412;2.164;2023-11-21T11:27:06;4.43;;;1.20;;
47153;SDS011;32907;41.412;2.164;2023-11-21T11:30:06;3.17;;;1.15;;
47153;SDS011;32907;41.412;2.164;2023-11-21T11:35:51;4.10;;;1.30;;
47153;SDS011;32907;41.412;2.164;2023-11-21T11:38:26;1.73;;;1.15;;
47153;SDS011;32907;41.412;2.164;2023-11-21T11:41:01;3.40;;;1.30;;
47153;SDS011;32907;41.412;2.164;2023-11-21T11:43:32;3.00;;;1.30;;
47153;SDS011;32907;41.412;2.164;2023-11-21T11:46:07;2.10;;;1.20;;
47153;SDS011;32907;41.412;2.164;2023-11-21T11:48:38;2.03;;;1.00;;
47153;SDS011;32907;41.412;2.164;2023-11-21T11:51:11;2.72;;;1.20;;
47153;SDS011;32907;41.412;2.164;2023-11-21T11:53:42;1.77;;;0.95;;
47153;SDS011;32907;41.412;2.164;2023-11-21T11:56:30;2.97;;;1.23;;
47153;SDS011;32907;41.412;2.164;2023-11-21T11:59:02;2.88;;;1.13;;
47153;SDS011;32907;41.412;2.164;2023-11-21T12:01:32;2.58;;;0.90;;
47153;SDS011;32907;41.412;2.164;2023-11-21T12:06:39;1.83;;;0.90;;
47153;SDS011;32907;41.412;2.164;2023-11-21T12:09:17;3.50;;;0.98;;
47153;SDS011;32907;41.412;2.164;2023-11-21T12:14:16;5.65;;;1.70;;
47153;SDS011;32907;41.412;2.164;2023-11-21T12:16:45;4.72;;;1.73;;
47153;SDS011;32907;41.412;2.164;2023-11-21T12:19:13;3.08;;;1.20;;
47153;SDS011;32907;41.412;2.164;2023-11-21T12:21:42;4.03;;;1.48;;
47153;SDS011;32907;41.412;2.164;2023-11-21T12:24:12;2.88;;;0.82;;
47153;SDS011;32907;41.412;2.164;2023-11-21T12:26:42;3.80;;;1.10;;
47153;SDS011;32907;41.412;2.164;2023-11-21T12:29:11;4.47;;;1.10;;
47153;SDS011;32907;41.412;2.164;2023-11-21T12:31:39;3.22;;;1.27;;
47153;SDS011;32907;41.412;2.164;2023-11-21T12:34:08;4.05;;;1.60;;
47153;SDS011;32907;41.412;2.164;2023-11-21T12:36:38;4.15;;;2.55;;
47153;SDS011;32907;41.412;2.164;2023-11-21T12:39:08;4.60;;;2.80;;
47153;SDS011;32907;41.412;2.164;2023-11-21T12:41:38;4.07;;;2.30;;
47153;SDS011;32907;41.412;2.164;2023-11-21T12:44:09;4.68;;;2.88;;
47153;SDS011;32907;41.412;2.164;2023-11-21T12:46:41;5.60;;;2.55;;
47153;SDS011;32907;41.412;2.164;2023-11-21T12:49:12;4.65;;;2.80;;
47153;SDS011;32907;41.412;2.164;2023-11-21T12:51:45;4.10;;;2.22;;
47153;SDS011;32907;41.412;2.164;2023-11-21T12:54:14;4.78;;;2.30;;
47153;SDS011;32907;41.412;2.164;2023-11-21T12:56:45;4.82;;;2.10;;
47153;SDS011;32907;41.412;2.164;2023-11-21T12:59:15;3.10;;;1.60;;
47153;SDS011;32907;41.412;2.164;2023-11-21T13:01:46;4.85;;;2.10;;
47153;SDS011;32907;41.412;2.164;2023-11-21T13:04:15;9.48;;;4.13;;
47153;SDS011;32907;41.412;2.164;2023-11-21T13:06:43;11.80;;;4.60;;
47153;SDS011;32907;41.412;2.164;2023-11-21T13:09:11;9.55;;;3.38;;
47153;SDS011;32907;41.412;2.164;2023-11-21T13:11:44;5.85;;;2.65;;
47153;SDS011;32907;41.412;2.164;2023-11-21T13:14:13;4.07;;;1.75;;
47153;SDS011;32907;41.412;2.164;2023-11-21T13:16:42;5.30;;;2.35;;
47153;SDS011;32907;41.412;2.164;2023-11-21T13:19:14;4.20;;;1.83;;
47153;SDS011;32907;41.412;2.164;2023-11-21T13:21:42;5.55;;;1.70;;
47153;SDS011;32907;41.412;2.164;2023-11-21T13:24:11;5.82;;;2.38;;
47153;SDS011;32907;41.412;2.164;2023-11-21T13:26:39;5.93;;;3.33;;
47153;SDS011;32907;41.412;2.164;2023-11-21T13:29:08;9.80;;;4.10;;
47153;SDS011;32907;41.412;2.164;2023-11-21T13:31:36;7.00;;;3.40;;
47153;SDS011;32907;41.412;2.164;2023-11-21T13:34:06;5.72;;;2.70;;
47153;SDS011;32907;41.412;2.164;2023-11-21T13:36:36;4.30;;;2.08;;
47153;SDS011;32907;41.412;2.164;2023-11-21T13:39:04;6.57;;;2.40;;
47153;SDS011;32907;41.412;2.164;2023-11-21T13:41:36;4.75;;;2.05;;
47153;SDS011;32907;41.412;2.164;2023-11-21T13:44:06;5.03;;;1.85;;
47153;SDS011;32907;41.412;2.164;2023-11-21T13:46:54;5.97;;;2.80;;
47153;SDS011;32907;41.412;2.164;2023-11-21T13:49:25;7.28;;;3.75;;
47153;SDS011;32907;41.412;2.164;2023-11-21T13:51:54;8.48;;;4.97;;
47153;SDS011;32907;41.412;2.164;2023-11-21T13:54:23;10.45;;;5.13;;
47153;SDS011;32907;41.412;2.164;2023-11-21T13:56:53;9.75;;;5.25;;
47153;SDS011;32907;41.412;2.164;2023-11-21T13:59:23;8.18;;;4.72;;
47153;SDS011;32907;41.412;2.164;2023-11-21T14:01:53;8.82;;;4.95;;
47153;SDS011;32907;41.412;2.164;2023-11-21T14:04:24;7.28;;;4.28;;
47153;SDS011;32907;41.412;2.164;2023-11-21T14:06:57;6.40;;;3.55;;
47153;SDS011;32907;41.412;2.164;2023-11-21T14:09:29;5.15;;;2.33;;
47153;SDS011;32907;41.412;2.164;2023-11-21T14:12:11;5.03;;;2.35;;
47153;SDS011;32907;41.412;2.164;2023-11-21T14:14:40;5.85;;;2.15;;
47153;SDS011;32907;41.412;2.164;2023-11-21T14:17:09;3.72;;;1.95;;
47153;SDS011;32907;41.412;2.164;2023-11-21T14:19:38;4.07;;;1.30;;
47153;SDS011;32907;41.412;2.164;2023-11-21T14:22:11;4.35;;;1.63;;
47153;SDS011;32907;41.412;2.164;2023-11-21T14:24:40;4.15;;;1.77;;
47153;SDS011;32907;41.412;2.164;2023-11-21T14:27:13;6.88;;;2.60;;
47153;SDS011;32907;41.412;2.164;2023-11-21T14:29:43;3.90;;;1.90;;
47153;SDS011;32907;41.412;2.164;2023-11-21T14:32:12;5.60;;;2.22;;
47153;SDS011;32907;41.412;2.164;2023-11-21T14:34:42;2.90;;;1.70;;
47153;SDS011;32907;41.412;2.164;2023-11-21T14:37:14;3.95;;;1.90;;
47153;SDS011;32907;41.412;2.164;2023-11-21T14:39:43;4.15;;;1.80;;
47153;SDS011;32907;41.412;2.164;2023-11-21T14:42:17;3.67;;;1.70;;
47153;SDS011;32907;41.412;2.164;2023-11-21T14:44:52;4.15;;;1.52;;
47153;SDS011;32907;41.412;2.164;2023-11-21T14:47:23;4.40;;;1.73;;
47153;SDS011;32907;41.412;2.164;2023-11-21T14:49:54;4.03;;;1.52;;
47153;SDS011;32907;41.412;2.164;2023-11-21T14:52:26;4.47;;;1.60;;
47153;SDS011;32907;41.412;2.164;2023-11-21T14:55:06;3.42;;;1.70;;
47153;SDS011;32907;41.412;2.164;2023-11-21T14:57:46;4.22;;;1.98;;
47153;SDS011;32907;41.412;2.164;2023-11-21T15:00:18;4.93;;;1.85;;
47153;SDS011;32907;41.412;2.164;2023-11-21T15:03:05;3.92;;;1.40;;
47153;SDS011;32907;41.412;2.164;2023-11-21T15:05:34;3.75;;;1.63;;
47153;SDS011;32907;41.412;2.164;2023-11-21T15:08:03;4.38;;;1.67;;
47153;SDS011;32907;41.412;2.164;2023-11-21T15:10:55;4.65;;;1.63;;
47153;SDS011;32907;41.412;2.164;2023-11-21T15:13:23;3.78;;;1.52;;